createdAt,value
2024-03-05T00:02:47.791Z,5.32
2024-03-05T00:06:19.777Z,5.38
2024-03-05T00:09:43.738Z,5.42
2024-03-05T00:13:31.348Z,5.41
2024-03-05T00:17:20.443Z,5.41
2024-03-05T00:21:09.662Z,5.39
2024-03-05T00:24:57.513Z,5.34
2024-03-05T00:28:12.361Z,5.27
2024-03-05T00:31:29.699Z,5.26
2024-03-05T00:35:00.283Z,5.20
2024-03-05T00:38:15.076Z,5.18
2024-03-05T00:42:07.598Z,5.17
2024-03-05T00:45:32.907Z,5.16
2024-03-05T00:49:04.818Z,5.11
2024-03-05T00:52:34.003Z,5.07
2024-03-05T00:56:17.409Z,5.03
2024-03-05T00:59:31.697Z,4.98
2024-03-05T01:03:01.560Z,4.95
2024-03-05T01:06:43.194Z,4.91
2024-03-05T01:10:12.272Z,4.85
2024-03-05T01:13:55.250Z,4.82
2024-03-05T01:17:20.141Z,4.80
2024-03-05T01:21:01.942Z,4.79
2024-03-05T01:24:04.438Z,4.82
2024-03-05T01:27:23.509Z,4.85
2024-03-05T01:30:42.362Z,4.86
2024-03-05T01:33:48.118Z,4.87
2024-03-05T01:37:19.590Z,4.87
2024-03-05T01:40:26.161Z,4.88
2024-03-05T01:43:31.381Z,4.87
2024-03-05T01:47:18.458Z,4.86
2024-03-05T01:50:23.912Z,4.82
2024-03-05T01:54:02.879Z,4.79
2024-03-05T01:57:45.680Z,4.75
2024-03-05T02:01:08.578Z,4.71
2024-03-05T02:04:24.888Z,4.66
2024-03-05T02:08:06.910Z,4.62
2024-03-05T02:11:59.447Z,4.55
2024-03-05T02:15:14.783Z,4.44
2024-03-05T02:18:38.726Z,4.40
2024-03-05T02:22:03.662Z,4.38
2024-03-05T02:25:52.945Z,4.36
2024-03-05T02:29:42.122Z,4.39
2024-03-05T02:33:13.903Z,4.43
2024-03-05T02:36:35.624Z,4.44
2024-03-05T02:40:24.886Z,4.43
2024-03-05T02:44:06.982Z,4.38
2024-03-05T02:47:38.801Z,4.29
2024-03-05T02:51:28.039Z,4.26
2024-03-05T02:54:58.509Z,4.23
2024-03-05T02:58:47.708Z,4.17
2024-03-05T03:02:09.195Z,4.14
2024-03-05T03:05:43.856Z,4.13
2024-03-05T03:08:41.872Z,4.12
2024-03-05T03:12:16.381Z,4.11
2024-03-05T03:15:47.130Z,4.09
2024-03-05T03:18:54.773Z,4.10
2024-03-05T03:22:04.005Z,4.13
2024-03-05T03:25:24.786Z,4.14
2024-03-05T03:29:13.977Z,4.15
2024-03-05T03:32:56.008Z,4.16
2024-03-05T03:35:57.752Z,4.18
2024-03-05T03:39:22.492Z,4.18
2024-03-05T03:42:28.467Z,4.15
2024-03-05T03:45:47.491Z,4.14
2024-03-05T03:49:39.366Z,4.13
2024-03-05T03:52:59.500Z,4.10
2024-03-05T03:56:19.420Z,4.03
2024-03-05T03:59:48.552Z,3.97
2024-03-05T04:03:20.697Z,3.96
2024-03-05T04:06:52.272Z,3.96
2024-03-05T04:10:24.496Z,4.00
2024-03-05T04:13:44.794Z,4.05
2024-03-05T04:17:09.749Z,4.06
2024-03-05T04:20:28.576Z,4.06
2024-03-05T04:23:52.638Z,4.06
2024-03-05T04:26:49.169Z,4.01
2024-03-05T04:30:13.843Z,3.94
2024-03-05T04:33:43.231Z,3.91
2024-03-05T04:36:59.602Z,3.88
2024-03-05T04:40:31.815Z,3.83
2024-03-05T04:44:05.520Z,3.80
2024-03-05T04:47:20.471Z,3.82
2024-03-05T04:51:09.645Z,3.85
2024-03-05T04:54:45.410Z,3.83
2024-03-05T04:58:23.359Z,3.78
2024-03-05T05:01:52.351Z,3.77
2024-03-05T05:05:41.414Z,3.75
2024-03-05T05:09:02.133Z,3.71
2024-03-05T05:12:24.241Z,3.73
2024-03-05T05:15:36.083Z,3.73
2024-03-05T05:19:10.157Z,3.73
2024-03-05T05:22:44.830Z,3.71
2024-03-05T05:26:07.945Z,3.73
2024-03-05T05:29:31.803Z,3.77
2024-03-05T05:33:29.237Z,3.81
2024-03-05T05:36:40.441Z,3.87
2024-03-05T05:39:59.561Z,3.96
2024-03-05T05:43:31.644Z,4.06
2024-03-05T05:46:53.246Z,4.14
2024-03-05T05:50:14.962Z,4.24
2024-03-05T05:53:20.209Z,4.33
2024-03-05T05:56:30.521Z,4.38
2024-03-05T05:59:46.770Z,4.43
2024-03-05T06:02:51.057Z,4.44
2024-03-05T06:06:36.243Z,4.47
2024-03-05T06:10:18.390Z,4.57
2024-03-05T06:14:02.435Z,4.69
2024-03-05T06:17:42.636Z,4.81
2024-03-05T06:21:03.866Z,4.90
2024-03-05T06:24:53.342Z,4.95
2024-03-05T06:28:35.974Z,5.00
2024-03-05T06:32:08.208Z,5.07
2024-03-05T06:35:38.994Z,5.13
2024-03-05T06:39:29.150Z,5.21
2024-03-05T06:42:35.763Z,5.24
2024-03-05T06:45:52.857Z,5.29
2024-03-05T06:49:03.811Z,5.38
2024-03-05T06:52:24.878Z,5.50
2024-03-05T06:55:55.919Z,5.76
2024-03-05T06:59:06.452Z,6.59
2024-03-05T07:02:04.394Z,7.75
2024-03-05T07:04:36.606Z,8.66
2024-03-05T07:07:10.297Z,9.48
2024-03-05T07:09:44.338Z,10.24
2024-03-05T07:12:14.475Z,11.04
2024-03-05T07:15:07.145Z,11.84
2024-03-05T07:18:27.122Z,12.57
2024-03-05T07:21:13.104Z,13.41
2024-03-05T07:23:47.574Z,13.99
2024-03-05T07:26:33.761Z,14.37
2024-03-05T07:29:32.724Z,14.85
2024-03-05T07:32:36.958Z,15.18
2024-03-05T07:35:09.830Z,15.61
2024-03-05T07:37:38.492Z,16.01
2024-03-05T07:40:22.083Z,16.32
2024-03-05T07:43:05.062Z,16.55
2024-03-05T07:46:01.372Z,16.63
2024-03-05T07:48:59.970Z,16.79
2024-03-05T07:51:41.069Z,16.95
2024-03-05T07:55:14.702Z,17.08
2024-03-05T07:58:17.474Z,17.15
2024-03-05T08:00:51.888Z,17.21
2024-03-05T08:03:55.837Z,17.42
2024-03-05T08:06:32.014Z,17.62
2024-03-05T08:09:13.335Z,17.68
2024-03-05T08:12:05.053Z,17.73
2024-03-05T08:14:59.371Z,17.73
2024-03-05T08:18:02.325Z,17.66
2024-03-05T08:21:37.265Z,17.57
2024-03-05T08:24:56.378Z,17.57
2024-03-05T08:27:39.961Z,17.61
2024-03-05T08:30:41.942Z,17.71
2024-03-05T08:33:30.314Z,17.77
2024-03-05T08:36:32.053Z,17.82
2024-03-05T08:39:20.918Z,17.87
2024-03-05T08:41:49.623Z,18.06
2024-03-05T08:44:36.408Z,18.12
2024-03-05T08:47:40.402Z,18.09
2024-03-05T08:51:19.078Z,18.04
2024-03-05T08:54:22.167Z,17.81
2024-03-05T08:57:13.495Z,17.57
2024-03-05T09:00:16.553Z,17.69
2024-03-05T09:12:35.326Z,17.46
2024-03-05T09:17:14.384Z,17.50
2024-03-05T09:24:45.623Z,17.45
2024-03-05T09:28:55.760Z,17.48
2024-03-05T09:33:25.504Z,17.48
2024-03-05T09:37:35.321Z,17.46
2024-03-05T09:45:09.694Z,17.47
2024-03-05T09:48:34.087Z,17.42
2024-03-05T10:03:02.292Z,18.25
2024-03-05T10:05:41.490Z,18.20
2024-03-05T10:08:19.862Z,18.05
2024-03-05T10:15:00.627Z,17.92
2024-03-05T10:18:15.528Z,17.85
2024-03-05T10:20:47.382Z,17.82
2024-03-05T10:23:30.844Z,17.87
2024-03-05T10:26:19.139Z,17.91
2024-03-05T10:29:04.342Z,18.04
2024-03-05T10:32:07.529Z,18.20
2024-03-05T10:34:47.620Z,18.35
2024-03-05T10:37:19.147Z,18.28
2024-03-05T10:39:53.865Z,18.26
2024-03-05T10:42:26.403Z,18.28
2024-03-05T10:44:54.666Z,18.31
2024-03-05T10:47:25.076Z,18.27
2024-03-05T10:50:00.667Z,18.06
2024-03-05T10:53:17.062Z,17.70
2024-03-05T10:56:15.132Z,17.45
2024-03-05T10:59:02.458Z,17.44
2024-03-05T11:01:55.119Z,17.18
2024-03-05T11:04:58.033Z,16.90
2024-03-05T11:08:46.679Z,16.72
2024-03-05T11:11:32.052Z,16.59
2024-03-05T11:14:22.041Z,16.38
2024-03-05T11:17:34.166Z,16.15
2024-03-05T11:20:41.046Z,16.03
2024-03-05T11:23:14.184Z,16.26
2024-03-05T11:25:56.063Z,16.61
2024-03-05T11:28:29.298Z,16.82
2024-03-05T11:31:18.649Z,16.72
2024-03-05T11:34:12.834Z,16.49
2024-03-05T11:36:40.910Z,16.24
2024-03-05T11:39:18.215Z,16.04
2024-03-05T11:41:46.857Z,15.92
2024-03-05T11:44:14.670Z,15.88
2024-03-05T11:46:48.999Z,16.01
2024-03-05T11:49:17.515Z,16.25
2024-03-05T11:51:46.604Z,16.58
2024-03-05T11:54:21.708Z,16.96
2024-03-05T11:56:58.784Z,17.26
2024-03-05T11:59:43.994Z,17.51
2024-03-05T12:02:18.242Z,17.68
2024-03-05T12:04:48.084Z,17.86
2024-03-05T12:07:15.466Z,18.05
2024-03-05T12:09:43.987Z,18.23
2024-03-05T12:12:13.476Z,18.38
2024-03-05T12:14:49.783Z,18.48
2024-03-05T12:17:18.923Z,18.59
2024-03-05T12:19:47.286Z,18.60
2024-03-05T12:22:17.072Z,18.49
2024-03-05T12:24:44.059Z,18.51
2024-03-05T12:27:11.844Z,18.47
2024-03-05T12:29:40.873Z,18.50
2024-03-05T12:32:09.614Z,18.61
2024-03-05T12:34:37.020Z,18.66
2024-03-05T12:37:08.550Z,18.63
2024-03-05T12:39:39.395Z,18.53
2024-03-05T12:42:10.230Z,18.55
2024-03-05T12:44:37.623Z,18.56
2024-03-05T12:47:05.936Z,18.60
2024-03-05T12:49:36.477Z,18.64
2024-03-05T12:52:08.994Z,18.57
2024-03-05T12:54:36.330Z,18.53
2024-03-05T12:57:08.475Z,18.45
2024-03-05T12:59:35.215Z,18.46
2024-03-05T13:02:03.672Z,18.44
2024-03-05T13:04:30.866Z,18.22
2024-03-05T13:06:58.039Z,17.90
2024-03-05T13:09:24.874Z,17.68
2024-03-05T13:11:52.386Z,17.51
2024-03-05T13:14:23.176Z,17.36
2024-03-05T13:16:52.935Z,17.30
2024-03-05T13:19:22.535Z,17.35
2024-03-05T13:21:50.197Z,17.33
2024-03-05T13:24:17.003Z,17.41
2024-03-05T13:26:49.047Z,17.52
2024-03-05T13:29:16.823Z,17.48
2024-03-05T13:31:43.853Z,17.41
2024-03-05T13:34:11.337Z,17.28
2024-03-05T13:36:40.276Z,17.11
2024-03-05T13:39:09.725Z,17.01
2024-03-05T13:41:40.771Z,16.94
2024-03-05T13:44:09.293Z,16.95
2024-03-05T13:46:40.012Z,16.90
2024-03-05T13:49:11.804Z,16.81
2024-03-05T13:51:38.714Z,16.75
2024-03-05T13:54:06.861Z,16.71
2024-03-05T13:56:33.647Z,16.67
2024-03-05T13:59:01.750Z,16.66
2024-03-05T14:01:29.435Z,16.68
2024-03-05T14:03:56.639Z,16.63
2024-03-05T14:06:24.926Z,16.54
2024-03-05T14:08:52.318Z,16.30
2024-03-05T14:11:19.395Z,15.99
2024-03-05T14:13:46.567Z,15.70
2024-03-05T14:16:18.412Z,15.46
2024-03-05T14:18:45.195Z,15.24
2024-03-05T14:21:12.064Z,15.09
2024-03-05T14:23:40.281Z,14.93
2024-03-05T14:26:09.019Z,14.79
2024-03-05T14:28:35.856Z,14.66
2024-03-05T14:31:03.826Z,14.55
2024-03-05T14:33:30.663Z,14.47
2024-03-05T14:35:57.833Z,14.42
2024-03-05T14:38:25.331Z,14.39
2024-03-05T14:40:54.718Z,14.37
2024-03-05T14:43:25.103Z,14.32
2024-03-05T14:45:54.124Z,14.30
2024-03-05T14:48:20.930Z,14.32
2024-03-05T14:50:48.904Z,14.31
2024-03-05T14:53:15.762Z,14.29
2024-03-05T14:55:42.932Z,14.25
2024-03-05T14:58:09.761Z,14.21
2024-03-05T15:00:36.998Z,14.17
2024-03-05T15:03:03.866Z,14.09
2024-03-05T15:05:31.734Z,14.02
2024-03-05T15:07:58.559Z,13.95
2024-03-05T15:10:28.805Z,13.89
2024-03-05T15:12:55.778Z,13.82
2024-03-05T15:15:24.038Z,13.73
2024-03-05T15:17:51.177Z,13.62
2024-03-05T15:20:18.950Z,13.50
2024-03-05T15:22:50.762Z,13.39
2024-03-05T15:25:20.598Z,13.29
2024-03-05T15:27:52.877Z,13.17
2024-03-05T15:30:24.562Z,13.07
2024-03-05T15:32:51.531Z,12.99
2024-03-05T15:35:20.993Z,12.88
2024-03-05T15:37:49.078Z,12.77
2024-03-05T15:40:21.260Z,12.65
2024-03-05T15:42:57.959Z,12.52
2024-03-05T15:45:27.798Z,12.38
2024-03-05T15:47:54.770Z,12.26
2024-03-05T15:50:24.355Z,12.15
2024-03-05T15:52:54.622Z,12.03
2024-03-05T15:55:28.250Z,11.94
2024-03-05T15:58:03.417Z,11.83
2024-03-05T16:00:36.688Z,11.71
2024-03-05T16:03:06.819Z,11.60
2024-03-05T16:05:43.439Z,11.51
2024-03-05T16:10:49.341Z,11.27
2024-03-05T16:13:16.802Z,11.17
2024-03-05T16:15:46.264Z,11.08
2024-03-05T16:18:16.732Z,10.99
2024-03-05T16:20:43.896Z,10.90
2024-03-05T16:23:11.706Z,10.81
2024-03-05T16:25:39.955Z,10.71
2024-03-05T16:28:09.798Z,10.61
2024-03-05T16:30:37.812Z,10.55
2024-03-05T16:33:05.597Z,10.46
2024-03-05T16:35:35.648Z,10.39
2024-03-05T16:38:06.417Z,10.37
2024-03-05T16:40:37.780Z,10.39
2024-03-05T16:43:05.799Z,10.42
2024-03-05T16:45:32.879Z,10.42
2024-03-05T16:48:00.477Z,10.45
2024-03-05T16:50:29.931Z,10.46
2024-03-05T16:52:58.218Z,10.47
2024-03-05T16:55:29.435Z,10.47
2024-03-05T16:57:59.328Z,10.45
2024-03-05T17:00:31.239Z,10.43
2024-03-05T17:03:19.147Z,10.40
2024-03-05T17:05:51.383Z,10.37
2024-03-05T17:08:21.918Z,10.35
2024-03-05T17:10:51.318Z,10.30
2024-03-05T17:13:19.435Z,10.24
2024-03-05T17:15:53.854Z,10.18
2024-03-05T17:18:23.982Z,10.12
2024-03-05T17:20:51.486Z,10.07
2024-03-05T17:23:23.180Z,10.02
2024-03-05T17:25:52.081Z,9.96
2024-03-05T17:28:18.872Z,9.91
2024-03-05T17:30:46.553Z,9.88
2024-03-05T17:33:15.546Z,9.86
2024-03-05T17:35:43.153Z,9.84
2024-03-05T17:38:12.766Z,9.84
2024-03-05T17:40:39.455Z,9.83
2024-03-05T17:43:06.285Z,9.81
2024-03-05T17:45:33.448Z,9.80
2024-03-05T17:48:05.295Z,9.78
2024-03-05T17:50:32.487Z,9.75
2024-03-05T17:52:59.266Z,9.72
2024-03-05T17:55:26.119Z,9.67
2024-03-05T17:57:53.036Z,9.64
2024-03-05T18:00:27.157Z,9.57
2024-03-05T18:02:55.142Z,9.50
2024-03-05T18:05:28.272Z,9.41
2024-03-05T18:07:56.638Z,9.32
2024-03-05T18:10:25.139Z,9.24
2024-03-05T18:12:52.964Z,9.15
2024-03-05T18:15:21.258Z,9.06
2024-03-05T18:17:50.068Z,8.94
2024-03-05T18:20:18.669Z,8.83
2024-03-05T18:22:46.486Z,8.73
2024-03-05T18:25:20.893Z,8.65
2024-03-05T18:27:56.304Z,8.56
2024-03-05T18:30:28.692Z,8.50
2024-03-05T18:32:55.965Z,8.43
2024-03-05T18:35:25.062Z,8.37
2024-03-05T18:37:52.930Z,8.31
2024-03-05T18:40:21.749Z,8.24
2024-03-05T18:42:50.915Z,8.16
2024-03-05T18:45:19.292Z,8.10
2024-03-05T18:47:58.423Z,8.05
2024-03-05T18:50:30.331Z,8.00
2024-03-05T18:52:57.432Z,7.95
2024-03-05T18:55:29.178Z,7.89
2024-03-05T18:57:56.806Z,7.81
2024-03-05T19:00:23.867Z,7.74
2024-03-05T19:02:51.246Z,7.69
2024-03-05T19:05:19.212Z,7.63
2024-03-05T19:07:47.301Z,7.59
2024-03-05T19:10:16.510Z,7.57
2024-03-05T19:12:43.907Z,7.51
2024-03-05T19:15:13.351Z,7.46
2024-03-05T19:17:43.463Z,7.39
2024-03-05T19:20:13.762Z,7.33
2024-03-05T19:22:41.182Z,7.26
2024-03-05T19:25:11.160Z,7.17
2024-03-05T19:27:42.062Z,7.10
2024-03-05T19:30:16.462Z,7.04
2024-03-05T19:32:43.767Z,6.98
2024-03-05T19:35:14.359Z,6.92
2024-03-05T19:37:45.536Z,6.85
2024-03-05T19:40:16.239Z,6.81
2024-03-05T19:42:45.358Z,6.76
2024-03-05T19:45:12.558Z,6.70
2024-03-05T19:47:39.765Z,6.67
2024-03-05T19:50:07.206Z,6.65
2024-03-05T19:52:35.641Z,6.61
2024-03-05T19:55:02.868Z,6.55
2024-03-05T19:57:29.684Z,6.49
2024-03-05T19:59:59.670Z,6.46
2024-03-05T20:02:28.632Z,6.40
2024-03-05T20:04:55.971Z,6.33
2024-03-05T20:07:22.678Z,6.27
2024-03-05T20:09:49.571Z,6.21
2024-03-05T20:12:18.059Z,6.16
2024-03-05T20:14:44.905Z,6.12
2024-03-05T20:17:12.062Z,6.11
2024-03-05T20:19:39.990Z,6.10
2024-03-05T20:22:07.926Z,6.09
2024-03-05T20:24:35.423Z,6.06
2024-03-05T20:27:02.774Z,6.02
2024-03-05T20:29:30.462Z,5.96
2024-03-05T20:31:57.792Z,5.91
2024-03-05T20:34:26.098Z,5.85
2024-03-05T20:36:52.942Z,5.81
2024-03-05T20:39:19.666Z,5.78
2024-03-05T20:41:46.702Z,5.76
2024-03-05T20:44:17.322Z,5.76
2024-03-05T20:46:44.467Z,5.79
2024-03-05T20:49:11.381Z,5.82
2024-03-05T20:51:38.842Z,5.85
2024-03-05T20:54:05.602Z,5.88
2024-03-05T20:56:32.359Z,5.89
2024-03-05T20:58:59.246Z,5.89
2024-03-05T21:01:26.172Z,5.90
2024-03-05T21:03:53.488Z,5.92
2024-03-05T21:06:20.275Z,5.91
2024-03-05T21:08:48.080Z,5.91
2024-03-05T21:11:15.581Z,5.89
2024-03-05T21:13:42.801Z,5.85
2024-03-05T21:16:11.125Z,5.82
2024-03-05T21:18:38.242Z,5.79
2024-03-05T21:21:05.938Z,5.73
2024-03-05T21:23:34.240Z,5.65
2024-03-05T21:26:13.891Z,5.61
2024-03-05T21:28:51.662Z,5.55
2024-03-05T21:31:18.807Z,5.49
2024-03-05T21:33:45.771Z,5.47
2024-03-05T21:36:12.774Z,5.43
2024-03-05T21:38:39.567Z,5.38
2024-03-05T21:41:09.212Z,5.33
2024-03-05T21:43:35.983Z,5.29
2024-03-05T21:46:04.358Z,5.26
2024-03-05T21:48:31.174Z,5.23
2024-03-05T21:51:06.272Z,5.20
2024-03-05T21:53:36.941Z,5.17
2024-03-05T21:56:03.994Z,5.18
2024-03-05T21:58:30.859Z,5.19
2024-03-05T22:00:57.676Z,5.19
2024-03-05T22:03:24.516Z,5.16
2024-03-05T22:05:51.688Z,5.10
2024-03-05T22:08:18.740Z,5.03
2024-03-05T22:10:46.177Z,4.98
2024-03-05T22:13:13.260Z,4.96
2024-03-05T22:15:40.388Z,4.96
2024-03-05T22:18:14.322Z,4.93
2024-03-05T22:20:44.187Z,4.90
2024-03-05T22:23:24.340Z,4.87
2024-03-05T22:25:51.361Z,4.83
2024-03-05T22:28:27.754Z,4.81
2024-03-05T22:30:55.913Z,4.76
2024-03-05T22:33:28.968Z,4.70
2024-03-05T22:35:56.433Z,4.61
2024-03-05T22:38:33.081Z,4.53
2024-03-05T22:41:00.433Z,4.50
2024-03-05T22:43:27.788Z,4.50
2024-03-05T22:45:54.784Z,4.49
2024-03-05T22:48:31.674Z,4.49
2024-03-05T22:51:22.265Z,4.50
2024-03-05T22:54:01.598Z,4.46
2024-03-05T22:56:28.397Z,4.42
2024-03-05T22:58:55.342Z,4.38
2024-03-05T23:01:22.135Z,4.32
2024-03-05T23:03:49.289Z,4.27
2024-03-05T23:06:21.083Z,4.21
2024-03-05T23:08:51.867Z,4.18
2024-03-05T23:11:18.989Z,4.16
2024-03-05T23:13:45.961Z,4.14
2024-03-05T23:16:13.903Z,4.14
2024-03-05T23:18:41.429Z,4.10
2024-03-05T23:21:10.171Z,4.01
2024-03-05T23:23:38.604Z,3.95
2024-03-05T23:26:06.911Z,3.93
2024-03-05T23:28:33.753Z,3.94
2024-03-05T23:31:00.553Z,3.95
2024-03-05T23:33:27.298Z,3.98
2024-03-05T23:35:53.967Z,3.99
2024-03-05T23:38:21.411Z,3.98
2024-03-05T23:40:48.264Z,3.98
2024-03-05T23:43:15.113Z,4.00
2024-03-05T23:45:41.942Z,4.00
2024-03-05T23:48:09.793Z,4.00
2024-03-05T23:50:36.679Z,4.03
2024-03-05T23:53:03.722Z,4.03
2024-03-05T23:55:30.925Z,4.01
2024-03-05T23:57:57.690Z,4.01
